sensor_id;sensor_type;location;lat;lon;timestamp;pressure;altitude;pressure_sealevel;temperature;humidity
10587;BME280;5341;47.606;7.576;2023-04-26T00:01:01;98873.06;;;13.47;54.30
10587;BME280;5341;47.606;7.576;2023-04-26T00:03:32;98867.88;;;13.45;54.55
10587;BME280;5341;47.606;7.576;2023-04-26T00:06:01;98861.69;;;13.45;54.33
10587;BME280;5341;47.606;7.576;2023-04-26T00:08:31;98864.53;;;13.43;54.46
10587;BME280;5341;47.606;7.576;2023-04-26T00:10:58;98863.72;;;13.43;54.73
10587;BME280;5341;47.606;7.576;2023-04-26T00:13:26;98867.44;;;13.42;54.42
10587;BME280;5341;47.606;7.576;2023-04-26T00:15:54;98859.56;;;13.40;54.35
10587;BME280;5341;47.606;7.576;2023-04-26T00:18:22;98861.44;;;13.40;54.40
10587;BME280;5341;47.606;7.576;2023-04-26T00:20:51;98858.94;;;13.38;54.35
10587;BME280;5341;47.606;7.576;2023-04-26T00:23:19;98867.22;;;13.37;54.51
10587;BME280;5341;47.606;7.576;2023-04-26T00:25:46;98864.72;;;13.35;54.46
10587;BME280;5341;47.606;7.576;2023-04-26T00:28:14;98869.47;;;13.33;54.36
10587;BME280;5341;47.606;7.576;2023-04-26T00:30:41;98854.34;;;13.32;54.40
10587;BME280;5341;47.606;7.576;2023-04-26T00:33:12;98858.28;;;13.30;54.40
10587;BME280;5341;47.606;7.576;2023-04-26T00:35:40;98848.75;;;13.27;54.42
10587;BME280;5341;47.606;7.576;2023-04-26T00:38:09;98855.16;;;13.26;54.11
10587;BME280;5341;47.606;7.576;2023-04-26T00:40:37;98851.63;;;13.26;54.11
10587;BME280;5341;47.606;7.576;2023-04-26T00:43:05;98845.63;;;13.24;54.07
10587;BME280;5341;47.606;7.576;2023-04-26T00:45:33;98845.84;;;13.22;54.45
10587;BME280;5341;47.606;7.576;2023-04-26T00:48:01;98845.19;;;13.20;54.20
10587;BME280;5341;47.606;7.576;2023-04-26T00:50:30;98848.91;;;13.19;54.26
10587;BME280;5341;47.606;7.576;2023-04-26T00:52:58;98850.28;;;13.15;54.46
10587;BME280;5341;47.606;7.576;2023-04-26T00:55:29;98852.16;;;13.14;54.50
10587;BME280;5341;47.606;7.576;2023-04-26T00:57:56;98857.72;;;13.13;54.03
10587;BME280;5341;47.606;7.576;2023-04-26T01:00:25;98863.28;;;13.11;54.47
10587;BME280;5341;47.606;7.576;2023-04-26T01:02:53;98860.81;;;13.10;54.39
10587;BME280;5341;47.606;7.576;2023-04-26T01:05:23;98856.84;;;13.06;54.36
10587;BME280;5341;47.606;7.576;2023-04-26T01:07:51;98858.88;;;13.04;54.32
10587;BME280;5341;47.606;7.576;2023-04-26T01:10:19;98853.72;;;13.02;53.96
10587;BME280;5341;47.606;7.576;2023-04-26T01:12:49;98861.16;;;13.00;54.22
10587;BME280;5341;47.606;7.576;2023-04-26T01:15:17;98862.19;;;12.99;54.19
10587;BME280;5341;47.606;7.576;2023-04-26T01:17:45;98862.53;;;12.96;54.07
10587;BME280;5341;47.606;7.576;2023-04-26T01:20:13;98865.44;;;12.95;54.29
10587;BME280;5341;47.606;7.576;2023-04-26T01:22:42;98855.72;;;12.94;54.44
10587;BME280;5341;47.606;7.576;2023-04-26T01:25:11;98859.63;;;12.91;54.41
10587;BME280;5341;47.606;7.576;2023-04-26T01:27:39;98860.66;;;12.90;54.04
10587;BME280;5341;47.606;7.576;2023-04-26T01:30:08;98865.19;;;12.89;54.14
10587;BME280;5341;47.606;7.576;2023-04-26T01:32:37;98856.72;;;12.86;53.99
10587;BME280;5341;47.606;7.576;2023-04-26T01:35:07;98854.22;;;12.84;53.95
10587;BME280;5341;47.606;7.576;2023-04-26T01:37:34;98852.38;;;12.85;54.17
10587;BME280;5341;47.606;7.576;2023-04-26T01:40:04;98854.22;;;12.84;53.98
10587;BME280;5341;47.606;7.576;2023-04-26T01:42:33;98853.56;;;12.82;54.54
10587;BME280;5341;47.606;7.576;2023-04-26T01:45:01;98853.56;;;12.82;54.06
10587;BME280;5341;47.606;7.576;2023-04-26T01:47:48;98850.88;;;12.82;54.11
10587;BME280;5341;47.606;7.576;2023-04-26T01:50:16;98848.19;;;12.82;54.39
10587;BME280;5341;47.606;7.576;2023-04-26T01:52:45;98841.16;;;12.81;54.11
10587;BME280;5341;47.606;7.576;2023-04-26T01:55:14;98840.13;;;12.82;53.90
10587;BME280;5341;47.606;7.576;2023-04-26T01:57:42;98838.28;;;12.83;54.13
10587;BME280;5341;47.606;7.576;2023-04-26T02:00:10;98850.88;;;12.82;54.35
10587;BME280;5341;47.606;7.576;2023-04-26T02:02:41;98848.19;;;12.82;54.10
10587;BME280;5341;47.606;7.576;2023-04-26T02:05:10;98845.50;;;12.82;54.35
10587;BME280;5341;47.606;7.576;2023-04-26T02:07:38;98849.03;;;12.83;54.13
10587;BME280;5341;47.606;7.576;2023-04-26T02:10:07;98851.69;;;12.83;54.24
10587;BME280;5341;47.606;7.576;2023-04-26T02:12:36;98849.22;;;12.81;54.66
10587;BME280;5341;47.606;7.576;2023-04-26T02:15:05;98850.25;;;12.80;54.05
10587;BME280;5341;47.606;7.576;2023-04-26T02:17:34;98842.38;;;12.79;54.19
10587;BME280;5341;47.606;7.576;2023-04-26T02:20:03;98850.84;;;12.76;54.58
10587;BME280;5341;47.606;7.576;2023-04-26T02:22:30;98849.19;;;12.75;54.59
10587;BME280;5341;47.606;7.576;2023-04-26T02:24:57;98845.88;;;12.73;54.61
10587;BME280;5341;47.606;7.576;2023-04-26T02:27:26;98850.41;;;12.72;54.65
10587;BME280;5341;47.606;7.576;2023-04-26T02:29:55;98853.25;;;12.71;54.67
10587;BME280;5341;47.606;7.576;2023-04-26T02:32:23;98850.97;;;12.68;54.30
10587;BME280;5341;47.606;7.576;2023-04-26T02:34:51;98846.63;;;12.67;54.76
10587;BME280;5341;47.606;7.576;2023-04-26T02:37:19;98846.81;;;12.65;54.93
10587;BME280;5341;47.606;7.576;2023-04-26T02:39:48;98846.38;;;12.61;54.55
10587;BME280;5341;47.606;7.576;2023-04-26T02:42:17;98845.56;;;12.61;54.54
10587;BME280;5341;47.606;7.576;2023-04-26T02:44:45;98849.06;;;12.61;54.71
10587;BME280;5341;47.606;7.576;2023-04-26T02:47:15;98844.72;;;12.60;54.92
10587;BME280;5341;47.606;7.576;2023-04-26T02:49:45;98844.91;;;12.59;54.92
10587;BME280;5341;47.606;7.576;2023-04-26T02:52:12;98849.81;;;12.55;54.36
10587;BME280;5341;47.606;7.576;2023-04-26T02:54:40;98847.97;;;12.56;55.06
10587;BME280;5341;47.606;7.576;2023-04-26T02:57:08;98844.47;;;12.55;54.67
10587;BME280;5341;47.606;7.576;2023-04-26T02:59:37;98843.63;;;12.55;54.99
10587;BME280;5341;47.606;7.576;2023-04-26T03:02:04;98839.50;;;12.52;54.39
10587;BME280;5341;47.606;7.576;2023-04-26T03:04:33;98841.16;;;12.53;54.75
10587;BME280;5341;47.606;7.576;2023-04-26T03:07:02;98836.81;;;12.52;54.91
10587;BME280;5341;47.606;7.576;2023-04-26T03:09:29;98826.06;;;12.52;54.48
10587;BME280;5341;47.606;7.576;2023-04-26T03:11:59;98827.94;;;12.52;54.51
10587;BME280;5341;47.606;7.576;2023-04-26T03:14:28;98825.25;;;12.52;54.78
10587;BME280;5341;47.606;7.576;2023-04-26T03:16:56;98819.25;;;12.50;54.29
10587;BME280;5341;47.606;7.576;2023-04-26T03:19:24;98825.44;;;12.50;55.03
10587;BME280;5341;47.606;7.576;2023-04-26T03:21:54;98828.13;;;12.50;55.00
10587;BME280;5341;47.606;7.576;2023-04-26T03:24:21;98822.97;;;12.49;55.02
10587;BME280;5341;47.606;7.576;2023-04-26T03:26:49;98822.13;;;12.48;54.42
10587;BME280;5341;47.606;7.576;2023-04-26T03:29:17;98823.97;;;12.48;55.13
10587;BME280;5341;47.606;7.576;2023-04-26T03:31:45;98823.31;;;12.46;54.53
10587;BME280;5341;47.606;7.576;2023-04-26T03:34:13;98824.16;;;12.46;54.53
10587;BME280;5341;47.606;7.576;2023-04-26T03:36:41;98824.16;;;12.46;54.69
10587;BME280;5341;47.606;7.576;2023-04-26T03:39:09;98823.31;;;12.46;55.11
10587;BME280;5341;47.606;7.576;2023-04-26T03:41:37;98831.16;;;12.47;54.96
10587;BME280;5341;47.606;7.576;2023-04-26T03:44:06;98829.34;;;12.48;55.29
10587;BME280;5341;47.606;7.576;2023-04-26T03:46:33;98826.66;;;12.48;54.88
10587;BME280;5341;47.606;7.576;2023-04-26T03:49:01;98827.50;;;12.48;55.25
10587;BME280;5341;47.606;7.576;2023-04-26T03:51:29;98826.41;;;12.43;55.12
10587;BME280;5341;47.606;7.576;2023-04-26T03:53:57;98824.94;;;12.40;54.62
10587;BME280;5341;47.606;7.576;2023-04-26T03:56:26;98820.78;;;12.38;54.86
10587;BME280;5341;47.606;7.576;2023-04-26T03:58:54;98813.09;;;12.35;54.79
10587;BME280;5341;47.606;7.576;2023-04-26T04:01:23;98810.63;;;12.33;55.15
10587;BME280;5341;47.606;7.576;2023-04-26T04:03:51;98810.81;;;12.31;55.00
10587;BME280;5341;47.606;7.576;2023-04-26T04:06:19;98807.13;;;12.32;54.83
10587;BME280;5341;47.606;7.576;2023-04-26T04:08:47;98815.97;;;12.33;55.01
10587;BME280;5341;47.606;7.576;2023-04-26T04:11:15;98815.78;;;12.35;55.38
10587;BME280;5341;47.606;7.576;2023-04-26T04:13:44;98821.81;;;12.37;55.42
10587;BME280;5341;47.606;7.576;2023-04-26T04:16:11;98818.47;;;12.35;54.73
10587;BME280;5341;47.606;7.576;2023-04-26T04:18:40;98818.47;;;12.35;55.04
10587;BME280;5341;47.606;7.576;2023-04-26T04:21:07;98812.09;;;12.36;54.98
10587;BME280;5341;47.606;7.576;2023-04-26T04:23:35;98818.47;;;12.35;54.94
10587;BME280;5341;47.606;7.576;2023-04-26T04:26:07;98821.16;;;12.35;54.68
10587;BME280;5341;47.606;7.576;2023-04-26T04:28:34;98819.13;;;12.37;55.32
10587;BME280;5341;47.606;7.576;2023-04-26T04:31:03;98818.31;;;12.36;54.74
10587;BME280;5341;47.606;7.576;2023-04-26T04:33:31;98810.25;;;12.36;55.04
10587;BME280;5341;47.606;7.576;2023-04-26T04:35:59;98819.97;;;12.37;54.99
10587;BME280;5341;47.606;7.576;2023-04-26T04:38:27;98821.00;;;12.36;54.70
10587;BME280;5341;47.606;7.576;2023-04-26T04:40:55;98816.63;;;12.35;54.72
10587;BME280;5341;47.606;7.576;2023-04-26T04:43:23;98812.28;;;12.34;55.02
10587;BME280;5341;47.606;7.576;2023-04-26T04:45:51;98816.63;;;12.35;54.72
10587;BME280;5341;47.606;7.576;2023-04-26T04:48:20;98820.31;;;12.34;55.16
10587;BME280;5341;47.606;7.576;2023-04-26T04:50:48;98824.03;;;12.33;55.12
10587;BME280;5341;47.606;7.576;2023-04-26T04:53:16;98828.97;;;12.29;54.73
10587;BME280;5341;47.606;7.576;2023-04-26T04:55:44;98830.81;;;12.29;54.74
10587;BME280;5341;47.606;7.576;2023-04-26T04:58:14;98832.47;;;12.30;55.28
10587;BME280;5341;47.606;7.576;2023-04-26T05:00:43;98836.59;;;12.32;54.82
10587;BME280;5341;47.606;7.576;2023-04-26T05:03:17;98836.59;;;12.32;54.72
10587;BME280;5341;47.606;7.576;2023-04-26T05:05:46;98836.81;;;12.31;54.41
10587;BME280;5341;47.606;7.576;2023-04-26T05:08:14;98845.03;;;12.29;54.40
10587;BME280;5341;47.606;7.576;2023-04-26T05:10:41;98848.56;;;12.30;55.28
10587;BME280;5341;47.606;7.576;2023-04-26T05:13:09;98856.22;;;12.33;54.93
10587;BME280;5341;47.606;7.576;2023-04-26T05:15:38;98863.22;;;12.34;55.09
10587;BME280;5341;47.606;7.576;2023-04-26T05:18:06;98865.72;;;12.36;54.94
10587;BME280;5341;47.606;7.576;2023-04-26T05:20:34;98865.72;;;12.36;55.33
10587;BME280;5341;47.606;7.576;2023-04-26T05:23:04;98873.59;;;12.37;54.69
10587;BME280;5341;47.606;7.576;2023-04-26T05:25:36;98875.25;;;12.38;54.97
10587;BME280;5341;47.606;7.576;2023-04-26T05:28:19;98873.41;;;12.39;54.94
10587;BME280;5341;47.606;7.576;2023-04-26T05:31:10;98876.72;;;12.41;55.15
10587;BME280;5341;47.606;7.576;2023-04-26T05:34:02;98883.09;;;12.40;55.03
10587;BME280;5341;47.606;7.576;2023-04-26T05:36:35;98882.91;;;12.41;55.16
10587;BME280;5341;47.606;7.576;2023-04-26T05:39:04;98880.88;;;12.43;55.13
10587;BME280;5341;47.606;7.576;2023-04-26T05:41:32;98881.69;;;12.44;55.34
10587;BME280;5341;47.606;7.576;2023-04-26T05:44:00;98886.88;;;12.45;54.87
10587;BME280;5341;47.606;7.576;2023-04-26T05:46:27;98891.41;;;12.45;55.01
10587;BME280;5341;47.606;7.576;2023-04-26T05:48:55;98891.41;;;12.45;54.79
10587;BME280;5341;47.606;7.576;2023-04-26T05:51:23;98891.41;;;12.45;55.23
10587;BME280;5341;47.606;7.576;2023-04-26T05:53:52;98890.38;;;12.46;54.72
10587;BME280;5341;47.606;7.576;2023-04-26T05:56:21;98896.56;;;12.46;55.42
10587;BME280;5341;47.606;7.576;2023-04-26T05:58:49;98894.56;;;12.48;54.92
10587;BME280;5341;47.606;7.576;2023-04-26T06:01:16;98897.88;;;12.50;55.19
10587;BME280;5341;47.606;7.576;2023-04-26T06:03:44;98899.34;;;12.53;55.02
10587;BME280;5341;47.606;7.576;2023-04-26T06:06:13;98907.38;;;12.53;54.83
10587;BME280;5341;47.606;7.576;2023-04-26T06:08:41;98907.19;;;12.54;55.17
10587;BME280;5341;47.606;7.576;2023-04-26T06:11:10;98903.28;;;12.57;55.02
10587;BME280;5341;47.606;7.576;2023-04-26T06:13:40;98904.94;;;12.58;55.10
10587;BME280;5341;47.606;7.576;2023-04-26T06:16:08;98905.59;;;12.60;54.78
10587;BME280;5341;47.606;7.576;2023-04-26T06:18:36;98905.41;;;12.61;54.83
10587;BME280;5341;47.606;7.576;2023-04-26T06:21:05;98910.38;;;12.65;55.21
10587;BME280;5341;47.606;7.576;2023-04-26T06:23:33;98908.97;;;12.69;55.59
10587;BME280;5341;47.606;7.576;2023-04-26T06:26:00;98918.47;;;12.71;55.43
10587;BME280;5341;47.606;7.576;2023-04-26T06:28:28;98909.25;;;12.74;55.37
10587;BME280;5341;47.606;7.576;2023-04-26T06:30:58;98912.38;;;12.77;54.98
10587;BME280;5341;47.606;7.576;2023-04-26T06:33:26;98918.16;;;12.81;55.13
10587;BME280;5341;47.606;7.576;2023-04-26T06:35:54;98907.44;;;12.81;54.59
10587;BME280;5341;47.606;7.576;2023-04-26T06:38:22;98905.56;;;12.81;54.54
10587;BME280;5341;47.606;7.576;2023-04-26T06:40:50;98896.69;;;12.81;54.70
10587;BME280;5341;47.606;7.576;2023-04-26T06:43:18;98900.00;;;12.83;54.85
10587;BME280;5341;47.606;7.576;2023-04-26T06:46:07;98899.66;;;12.86;55.02
10587;BME280;5341;47.606;7.576;2023-04-26T06:48:35;98895.94;;;12.87;54.74
10587;BME280;5341;47.606;7.576;2023-04-26T06:51:04;98893.69;;;12.90;54.88
10587;BME280;5341;47.606;7.576;2023-04-26T06:53:33;98898.66;;;12.94;55.06
10587;BME280;5341;47.606;7.576;2023-04-26T06:56:00;98904.50;;;12.97;55.26
10587;BME280;5341;47.606;7.576;2023-04-26T06:58:28;98901.41;;;13.00;54.51
10587;BME280;5341;47.606;7.576;2023-04-26T07:00:55;98898.53;;;13.02;54.52
10587;BME280;5341;47.606;7.576;2023-04-26T07:03:25;98895.25;;;13.06;54.91
10587;BME280;5341;47.606;7.576;2023-04-26T07:05:54;98892.00;;;13.11;54.72
10587;BME280;5341;47.606;7.576;2023-04-26T07:08:22;98896.97;;;13.14;54.47
10587;BME280;5341;47.606;7.576;2023-04-26T07:10:49;98889.34;;;13.17;54.61
10587;BME280;5341;47.606;7.576;2023-04-26T07:13:17;98887.97;;;13.22;54.96
10587;BME280;5341;47.606;7.576;2023-04-26T07:15:46;98887.38;;;13.26;55.50
10587;BME280;5341;47.606;7.576;2023-04-26T07:18:13;98886.59;;;13.32;54.98
10587;BME280;5341;47.606;7.576;2023-04-26T07:20:42;98889.53;;;13.37;55.04
10587;BME280;5341;47.606;7.576;2023-04-26T07:23:09;98889.75;;;13.42;54.72
10587;BME280;5341;47.606;7.576;2023-04-26T07:25:37;98886.03;;;13.43;54.85
10587;BME280;5341;47.606;7.576;2023-04-26T07:28:04;98886.69;;;13.45;54.61
10587;BME280;5341;47.606;7.576;2023-04-26T07:30:33;98890.63;;;13.49;54.59
10587;BME280;5341;47.606;7.576;2023-04-26T07:33:01;98883.81;;;13.54;55.54
10587;BME280;5341;47.606;7.576;2023-04-26T07:35:28;98882.84;;;13.61;55.53
10587;BME280;5341;47.606;7.576;2023-04-26T07:37:57;98883.91;;;13.67;55.66
10587;BME280;5341;47.606;7.576;2023-04-26T07:40:25;98882.09;;;13.74;56.18
10587;BME280;5341;47.606;7.576;2023-04-26T07:42:54;98881.72;;;13.84;57.15
10587;BME280;5341;47.606;7.576;2023-04-26T07:45:21;98880.31;;;13.94;56.34
10587;BME280;5341;47.606;7.576;2023-04-26T07:47:49;98872.50;;;14.06;56.29
10587;BME280;5341;47.606;7.576;2023-04-26T07:50:17;98868.19;;;14.18;56.68
10587;BME280;5341;47.606;7.576;2023-04-26T07:52:46;98866.56;;;14.30;56.91
10587;BME280;5341;47.606;7.576;2023-04-26T07:55:15;98870.97;;;14.45;57.01
10587;BME280;5341;47.606;7.576;2023-04-26T07:57:42;98866.66;;;14.57;57.19
10587;BME280;5341;47.606;7.576;2023-04-26T08:00:11;98875.78;;;14.69;57.31
10587;BME280;5341;47.606;7.576;2023-04-26T08:02:39;98868.53;;;14.83;56.84
10587;BME280;5341;47.606;7.576;2023-04-26T08:05:07;98866.88;;;14.95;57.04
10587;BME280;5341;47.606;7.576;2023-04-26T08:07:35;98866.84;;;15.02;55.36
10587;BME280;5341;47.606;7.576;2023-04-26T08:10:02;98867.06;;;15.07;55.76
10587;BME280;5341;47.606;7.576;2023-04-26T08:12:33;98871.81;;;15.11;55.06
10587;BME280;5341;47.606;7.576;2023-04-26T08:15:00;98866.66;;;15.16;54.68
10587;BME280;5341;47.606;7.576;2023-04-26T08:17:31;98874.31;;;15.19;54.63
10587;BME280;5341;47.606;7.576;2023-04-26T08:20:00;98872.84;;;15.23;54.58
10587;BME280;5341;47.606;7.576;2023-04-26T08:22:30;98868.91;;;15.26;55.19
10587;BME280;5341;47.606;7.576;2023-04-26T08:24:59;98861.25;;;15.30;55.10
10587;BME280;5341;47.606;7.576;2023-04-26T08:27:27;98856.69;;;15.30;55.25
10587;BME280;5341;47.606;7.576;2023-04-26T08:29:56;98862.91;;;15.31;55.27
10587;BME280;5341;47.606;7.576;2023-04-26T08:32:25;98865.16;;;15.34;55.68
10587;BME280;5341;47.606;7.576;2023-04-26T08:34:52;98861.81;;;15.38;55.04
10587;BME280;5341;47.606;7.576;2023-04-26T08:37:20;98865.97;;;15.47;55.64
10587;BME280;5341;47.606;7.576;2023-04-26T08:39:47;98867.81;;;15.60;55.48
10587;BME280;5341;47.606;7.576;2023-04-26T08:42:16;98871.94;;;15.69;55.20
10587;BME280;5341;47.606;7.576;2023-04-26T08:44:44;98867.38;;;15.76;55.26
10587;BME280;5341;47.606;7.576;2023-04-26T08:47:17;98869.84;;;15.78;54.32
10587;BME280;5341;47.606;7.576;2023-04-26T08:49:45;98874.41;;;15.77;54.60
10587;BME280;5341;47.606;7.576;2023-04-26T08:52:15;98868.19;;;15.77;54.52
10587;BME280;5341;47.606;7.576;2023-04-26T08:54:49;98864.69;;;15.76;54.73
10587;BME280;5341;47.606;7.576;2023-04-26T08:57:17;98868.59;;;15.80;55.06
10587;BME280;5341;47.606;7.576;2023-04-26T08:59:46;98878.13;;;15.83;54.20
10587;BME280;5341;47.606;7.576;2023-04-26T09:02:17;98872.94;;;15.88;54.10
10587;BME280;5341;47.606;7.576;2023-04-26T09:04:46;98864.81;;;15.95;53.97
10587;BME280;5341;47.606;7.576;2023-04-26T09:07:19;98867.47;;;16.01;54.42
10587;BME280;5341;47.606;7.576;2023-04-26T09:09:48;98876.56;;;16.07;53.98
10587;BME280;5341;47.606;7.576;2023-04-26T09:12:17;98872.59;;;16.09;53.40
10587;BME280;5341;47.606;7.576;2023-04-26T09:14:46;98864.09;;;16.13;53.87
10587;BME280;5341;47.606;7.576;2023-04-26T09:17:32;98855.34;;;16.17;53.72
10587;BME280;5341;47.606;7.576;2023-04-26T09:20:17;98866.13;;;16.24;54.38
10587;BME280;5341;47.606;7.576;2023-04-26T09:22:45;98864.25;;;16.24;53.56
10587;BME280;5341;47.606;7.576;2023-04-26T09:25:13;98863.63;;;16.22;53.65
10587;BME280;5341;47.606;7.576;2023-04-26T09:27:43;98864.66;;;16.21;53.37
10587;BME280;5341;47.606;7.576;2023-04-26T09:30:12;98866.72;;;16.26;53.84
10587;BME280;5341;47.606;7.576;2023-04-26T09:32:50;98863.97;;;16.32;53.19
10587;BME280;5341;47.606;7.576;2023-04-26T09:35:26;98871.22;;;16.38;53.35
10587;BME280;5341;47.606;7.576;2023-04-26T09:37:55;98861.03;;;16.40;53.31
10587;BME280;5341;47.606;7.576;2023-04-26T09:40:25;98866.22;;;16.42;53.07
10587;BME280;5341;47.606;7.576;2023-04-26T09:43:00;98860.59;;;16.44;53.38
10587;BME280;5341;47.606;7.576;2023-04-26T09:45:31;98870.75;;;16.48;53.77
10587;BME280;5341;47.606;7.576;2023-04-26T09:48:17;98859.97;;;16.48;52.99
10587;BME280;5341;47.606;7.576;2023-04-26T09:50:47;98862.03;;;16.46;53.09
10587;BME280;5341;47.606;7.576;2023-04-26T09:53:25;98858.69;;;16.51;53.13
10587;BME280;5341;47.606;7.576;2023-04-26T09:55:53;98862.34;;;16.63;53.06
10587;BME280;5341;47.606;7.576;2023-04-26T09:58:21;98850.47;;;16.70;53.15
10587;BME280;5341;47.606;7.576;2023-04-26T10:00:50;98854.00;;;16.71;52.26
10587;BME280;5341;47.606;7.576;2023-04-26T10:03:21;98854.03;;;16.64;51.86
10587;BME280;5341;47.606;7.576;2023-04-26T10:05:49;98848.84;;;16.63;52.59
10587;BME280;5341;47.606;7.576;2023-04-26T10:08:17;98838.28;;;16.61;51.70
10587;BME280;5341;47.606;7.576;2023-04-26T10:10:46;98847.78;;;16.64;52.45
10587;BME280;5341;47.606;7.576;2023-04-26T10:13:15;98848.41;;;16.73;52.41
10587;BME280;5341;47.606;7.576;2023-04-26T10:15:43;98844.19;;;16.77;52.13
10587;BME280;5341;47.606;7.576;2023-04-26T10:18:10;98840.78;;;16.88;52.78
10587;BME280;5341;47.606;7.576;2023-04-26T10:20:41;98848.09;;;17.06;52.17
10587;BME280;5341;47.606;7.576;2023-04-26T10:23:14;98842.41;;;17.14;51.56
10587;BME280;5341;47.606;7.576;2023-04-26T10:25:45;98843.38;;;17.19;51.17
10587;BME280;5341;47.606;7.576;2023-04-26T10:28:12;98837.47;;;17.29;52.48
10587;BME280;5341;47.606;7.576;2023-04-26T10:30:55;98844.25;;;17.38;52.95
10587;BME280;5341;47.606;7.576;2023-04-26T10:33:23;98837.34;;;17.42;51.93
10587;BME280;5341;47.606;7.576;2023-04-26T10:36:06;98828.94;;;17.50;51.71
10587;BME280;5341;47.606;7.576;2023-04-26T10:38:36;98836.81;;;17.52;51.78
10587;BME280;5341;47.606;7.576;2023-04-26T10:41:27;98833.66;;;17.55;50.81
10587;BME280;5341;47.606;7.576;2023-04-26T10:43:57;98839.22;;;17.60;50.98
10587;BME280;5341;47.606;7.576;2023-04-26T10:46:38;98834.38;;;17.69;51.46
10587;BME280;5341;47.606;7.576;2023-04-26T10:49:13;98826.19;;;17.75;51.58
10587;BME280;5341;47.606;7.576;2023-04-26T10:52:10;98827.28;;;17.86;49.83
10587;BME280;5341;47.606;7.576;2023-04-26T10:54:52;98818.66;;;17.96;50.02
10587;BME280;5341;47.606;7.576;2023-04-26T10:57:20;98820.81;;;18.05;50.83
10587;BME280;5341;47.606;7.576;2023-04-26T11:00:19;98815.53;;;18.10;51.50
10587;BME280;5341;47.606;7.576;2023-04-26T11:02:57;98817.91;;;18.19;50.45
10587;BME280;5341;47.606;7.576;2023-04-26T11:08:30;98815.97;;;18.37;48.96
10587;BME280;5341;47.606;7.576;2023-04-26T11:11:06;98812.34;;;18.43;49.56
10587;BME280;5341;47.606;7.576;2023-04-26T11:13:38;98807.28;;;18.47;49.50
10587;BME280;5341;47.606;7.576;2023-04-26T11:16:06;98808.72;;;18.61;49.10
10587;BME280;5341;47.606;7.576;2023-04-26T11:18:36;98805.38;;;18.66;48.88
10587;BME280;5341;47.606;7.576;2023-04-26T11:21:04;98805.13;;;18.67;48.89
10587;BME280;5341;47.606;7.576;2023-04-26T11:23:34;98801.34;;;18.68;48.18
10587;BME280;5341;47.606;7.576;2023-04-26T11:26:02;98801.81;;;18.77;47.93
10587;BME280;5341;47.606;7.576;2023-04-26T11:28:35;98801.38;;;18.80;48.59
10587;BME280;5341;47.606;7.576;2023-04-26T11:31:05;98797.69;;;18.86;47.70
10587;BME280;5341;47.606;7.576;2023-04-26T11:33:34;98803.03;;;18.93;47.96
10587;BME280;5341;47.606;7.576;2023-04-26T11:36:02;98795.34;;;19.01;47.39
10587;BME280;5341;47.606;7.576;2023-04-26T11:38:30;98781.09;;;19.06;47.85
10587;BME280;5341;47.606;7.576;2023-04-26T11:41:00;98789.56;;;19.10;48.46
10587;BME280;5341;47.606;7.576;2023-04-26T11:43:35;98784.16;;;19.10;48.47
10587;BME280;5341;47.606;7.576;2023-04-26T11:46:03;98778.03;;;19.14;48.31
10587;BME280;5341;47.606;7.576;2023-04-26T11:48:32;98776.25;;;19.20;48.62
10587;BME280;5341;47.606;7.576;2023-04-26T11:51:07;98767.41;;;19.24;48.57
10587;BME280;5341;47.606;7.576;2023-04-26T11:53:50;98770.25;;;19.29;47.81
10587;BME280;5341;47.606;7.576;2023-04-26T11:56:20;98770.47;;;19.40;47.80
10587;BME280;5341;47.606;7.576;2023-04-26T11:58:48;98773.28;;;19.56;46.53
10587;BME280;5341;47.606;7.576;2023-04-26T12:01:20;98777.50;;;19.64;45.37
10587;BME280;5341;47.606;7.576;2023-04-26T12:03:49;98772.16;;;19.69;45.97
10587;BME280;5341;47.606;7.576;2023-04-26T12:06:17;98772.50;;;19.73;46.57
10587;BME280;5341;47.606;7.576;2023-04-26T12:08:49;98766.69;;;19.81;47.39
10587;BME280;5341;47.606;7.576;2023-04-26T12:11:17;98768.69;;;19.85;47.79
10587;BME280;5341;47.606;7.576;2023-04-26T12:13:46;98767.00;;;19.96;46.36
10587;BME280;5341;47.606;7.576;2023-04-26T12:16:13;98761.91;;;20.00;45.71
10587;BME280;5341;47.606;7.576;2023-04-26T12:18:48;98749.16;;;20.00;47.06
10587;BME280;5341;47.606;7.576;2023-04-26T12:21:15;98760.09;;;20.05;46.00
10587;BME280;5341;47.606;7.576;2023-04-26T12:23:43;98764.97;;;20.20;46.81
10587;BME280;5341;47.606;7.576;2023-04-26T12:26:13;98760.94;;;20.23;46.17
10587;BME280;5341;47.606;7.576;2023-04-26T12:28:40;98752.97;;;20.33;45.19
10587;BME280;5341;47.606;7.576;2023-04-26T12:31:10;98757.31;;;20.45;45.55
10587;BME280;5341;47.606;7.576;2023-04-26T12:33:37;98756.41;;;20.57;43.55
10587;BME280;5341;47.606;7.576;2023-04-26T12:36:07;98751.31;;;20.60;45.22
10587;BME280;5341;47.606;7.576;2023-04-26T12:38:34;98758.56;;;20.55;44.93
10587;BME280;5341;47.606;7.576;2023-04-26T12:41:02;98755.41;;;20.46;45.30
10587;BME280;5341;47.606;7.576;2023-04-26T12:43:30;98746.34;;;20.57;45.39
10587;BME280;5341;47.606;7.576;2023-04-26T12:45:57;98747.34;;;20.85;45.21
10587;BME280;5341;47.606;7.576;2023-04-26T12:48:26;98752.06;;;21.11;45.05
10587;BME280;5341;47.606;7.576;2023-04-26T12:50:55;98742.44;;;21.42;43.92
10587;BME280;5341;47.606;7.576;2023-04-26T12:53:22;98745.25;;;21.69;44.73
10587;BME280;5341;47.606;7.576;2023-04-26T12:55:50;98750.09;;;21.67;43.31
10587;BME280;5341;47.606;7.576;2023-04-26T12:58:18;98744.03;;;21.60;43.36
10587;BME280;5341;47.606;7.576;2023-04-26T13:00:47;98741.91;;;21.89;40.82
10587;BME280;5341;47.606;7.576;2023-04-26T13:03:16;98744.97;;;22.19;39.80
10587;BME280;5341;47.606;7.576;2023-04-26T13:05:45;98743.84;;;22.42;41.56
10587;BME280;5341;47.606;7.576;2023-04-26T13:08:12;98749.03;;;22.49;39.44
10587;BME280;5341;47.606;7.576;2023-04-26T13:10:39;98750.56;;;22.35;39.47
10587;BME280;5341;47.606;7.576;2023-04-26T13:13:07;98739.78;;;22.18;41.28
10587;BME280;5341;47.606;7.576;2023-04-26T13:15:34;98728.69;;;22.03;42.00
10587;BME280;5341;47.606;7.576;2023-04-26T13:18:02;98725.81;;;21.87;42.42
10587;BME280;5341;47.606;7.576;2023-04-26T13:20:30;98719.75;;;21.80;42.37
10587;BME280;5341;47.606;7.576;2023-04-26T13:22:59;98717.53;;;21.77;43.32
10587;BME280;5341;47.606;7.576;2023-04-26T13:25:26;98722.44;;;21.75;42.66